BBC Polonia — V2EZ6 — position and weather

sailwx.info

Track history (hours):
 
Tides and Currents Weather Stations Pressure Air Temp Water Temp Dewpoint Dewpoint Depression Visibility Wind Speed Wind Dir Waves Ship Positions

BBC Polonia

Last reported at 2017-Apr-07 09:30 UTC. Time now 2017-Apr-26 21:32 UTC.
Position S 24°31' W 046°09'.
Warning: this ship's position is 19 days out of date.

Length 123 m; draft 5.4 m.

Type: Cargo ship. MMSI: 305614000.

Date/timePositionNaut miles runAvg speedWind from/ knotsBaromVisibWave heightAir tempDewpointWater temp
2017-Apr-07 09:30S 24°31' W 046°09'611.0
2017-Apr-07 08:57S 24°28' W 046°15'611.6
2017-Apr-07 08:26S 24°23' W 046°19'511.3
2017-Apr-07 08:00S 24°19' W 046°22'611.2
2017-Apr-07 07:30S 24°14' W 046°23'611.2
2017-Apr-07 07:00S 24°08' W 046°23'611.7
2017-Apr-07 06:30S 24°02' W 046°21'4 7.9
2017-Apr-07 06:00S 23°60' W 046°18'2 4.7
2017-Apr-07 05:29S 23°57' W 046°18'0 0.0
2017-Apr-06 03:09S 23°57' W 046°19'1 8.9
2017-Apr-06 03:00S 23°58' W 046°18'3 6.9
2017-Apr-06 02:30S 24°01' W 046°20'2 4.2
2017-Apr-06 02:00S 24°02' W 046°21'2 4.9
2017-Apr-06 01:31S 24°05' W 046°22'3 5.7
2017-Apr-06 01:00S 24°06' W 046°19'3 6.8
2017-Apr-06 00:30S 24°08' W 046°16'1 2.6
2017-Apr-05 23:56S 24°09' W 046°15'0 0.1
2017-Apr-05 23:29S 24°09' W 046°15'0 0.0
2017-Apr-05 22:59S 24°09' W 046°15'0 0.0
2017-Apr-05 22:29S 24°09' W 046°15'0 0.0
2017-Apr-05 21:56S 24°09' W 046°15'0 0.0
2017-Apr-05 21:29S 24°09' W 046°15'0 0.0
2017-Apr-05 20:59S 24°09' W 046°15'0 0.0
2017-Apr-05 20:20S 24°09' W 046°15'0 0.0
2017-Apr-05 19:56S 24°09' W 046°15'0 0.0
2017-Apr-05 19:26S 24°09' W 046°15'0 0.0
2017-Apr-05 18:56S 24°09' W 046°15'0 0.0
2017-Apr-05 18:26S 24°09' W 046°15'0 0.0
2017-Apr-05 17:59S 24°09' W 046°15'0 0.2
2017-Apr-05 17:30S 24°09' W 046°15'4 7.2
2017-Apr-05 16:59S 24°12' W 046°18'510.1
2017-Apr-05 16:30S 24°15' W 046°21'510.5
2017-Apr-05 16:00S 24°20' W 046°24'510.7
2017-Apr-05 15:30S 24°24' W 046°27'611.7
2017-Apr-05 15:00S 24°29' W 046°31'1212.3
2017-Apr-05 14:00S 24°39' W 046°40'612.4
2017-Apr-05 13:30S 24°43' W 046°44'812.6
2017-Apr-05 12:52S 24°49' W 046°51'512.7
2017-Apr-05 12:30S 24°52' W 046°55'16 0.4
2017-Apr-03 21:27S 24°40' W 046°42'512.3
2017-Apr-03 21:00S 24°36' W 046°38'612.5
2017-Apr-03 20:30S 24°32' W 046°33'612.0
2017-Apr-03 20:00S 24°27' W 046°29'612.1
2017-Apr-03 19:30S 24°21' W 046°28'611.8
2017-Apr-03 19:01S 24°15' W 046°26'611.6
2017-Apr-03 18:30S 24°10' W 046°24'611.7
2017-Apr-03 18:00S 24°04' W 046°22'611.0
2017-Apr-03 17:30S 23°59' W 046°19'3 0.1
2017-Apr-01 13:47S 23°57' W 046°19'3 8.5
2017-Apr-01 13:27S 23°59' W 046°17'4 8.0
2017-Apr-01 13:00S 24°01' W 046°21'611.3
2017-Apr-01 12:30S 24°07' W 046°22'611.6
2017-Apr-01 12:00S 24°13' W 046°23'611.8
2017-Apr-01 11:30S 24°18' W 046°22'612.0
2017-Apr-01 11:00S 24°24' W 046°19'612.4
2017-Apr-01 10:30S 24°28' W 046°14'612.0
2017-Apr-01 10:00S 24°32' W 046°09'  
Track history (hours):
 
Tides and Currents Weather Stations Pressure Air Temp Water Temp Dewpoint Dewpoint Depression Visibility Wind Speed Wind Dir Waves Ship Positions

BBC Polonia

Last reported at 2017-Apr-07 09:30 UTC. Time now 2017-Apr-26 21:32 UTC.
Position S 24°31' W 046°09'.
Warning: this ship's position is 19 days out of date.

Length 123 m; draft 5.4 m.

Type: Cargo ship. MMSI: 305614000.

Date/timePositionNaut miles runAvg speedWind from/ knotsBaromVisibWave heightAir tempDewpointWater temp
2017-Apr-07 09:30S 24°31' W 046°09'611.0
2017-Apr-07 08:57S 24°28' W 046°15'611.6
2017-Apr-07 08:26S 24°23' W 046°19'511.3
2017-Apr-07 08:00S 24°19' W 046°22'611.2
2017-Apr-07 07:30S 24°14' W 046°23'611.2
2017-Apr-07 07:00S 24°08' W 046°23'611.7
2017-Apr-07 06:30S 24°02' W 046°21'4 7.9
2017-Apr-07 06:00S 23°60' W 046°18'2 4.7
2017-Apr-07 05:29S 23°57' W 046°18'0 0.0
2017-Apr-06 03:09S 23°57' W 046°19'1 8.9
2017-Apr-06 03:00S 23°58' W 046°18'3 6.9
2017-Apr-06 02:30S 24°01' W 046°20'2 4.2
2017-Apr-06 02:00S 24°02' W 046°21'2 4.9
2017-Apr-06 01:31S 24°05' W 046°22'3 5.7
2017-Apr-06 01:00S 24°06' W 046°19'3 6.8
2017-Apr-06 00:30S 24°08' W 046°16'1 2.6
2017-Apr-05 23:56S 24°09' W 046°15'0 0.1
2017-Apr-05 23:29S 24°09' W 046°15'0 0.0
2017-Apr-05 22:59S 24°09' W 046°15'0 0.0
2017-Apr-05 22:29S 24°09' W 046°15'0 0.0
2017-Apr-05 21:56S 24°09' W 046°15'0 0.0
2017-Apr-05 21:29S 24°09' W 046°15'0 0.0
2017-Apr-05 20:59S 24°09' W 046°15'0 0.0
2017-Apr-05 20:20S 24°09' W 046°15'0 0.0
2017-Apr-05 19:56S 24°09' W 046°15'0 0.0
2017-Apr-05 19:26S 24°09' W 046°15'0 0.0
2017-Apr-05 18:56S 24°09' W 046°15'0 0.0
2017-Apr-05 18:26S 24°09' W 046°15'0 0.0
2017-Apr-05 17:59S 24°09' W 046°15'0 0.2
2017-Apr-05 17:30S 24°09' W 046°15'4 7.2
2017-Apr-05 16:59S 24°12' W 046°18'510.1
2017-Apr-05 16:30S 24°15' W 046°21'510.5
2017-Apr-05 16:00S 24°20' W 046°24'510.7
2017-Apr-05 15:30S 24°24' W 046°27'611.7
2017-Apr-05 15:00S 24°29' W 046°31'1212.3
2017-Apr-05 14:00S 24°39' W 046°40'612.4
2017-Apr-05 13:30S 24°43' W 046°44'812.6
2017-Apr-05 12:52S 24°49' W 046°51'512.7
2017-Apr-05 12:30S 24°52' W 046°55'16 0.4
2017-Apr-03 21:27S 24°40' W 046°42'512.3
2017-Apr-03 21:00S 24°36' W 046°38'612.5
2017-Apr-03 20:30S 24°32' W 046°33'612.0
2017-Apr-03 20:00S 24°27' W 046°29'612.1
2017-Apr-03 19:30S 24°21' W 046°28'611.8
2017-Apr-03 19:01S 24°15' W 046°26'611.6
2017-Apr-03 18:30S 24°10' W 046°24'611.7
2017-Apr-03 18:00S 24°04' W 046°22'611.0
2017-Apr-03 17:30S 23°59' W 046°19'3 0.1
2017-Apr-01 13:47S 23°57' W 046°19'3 8.5
2017-Apr-01 13:27S 23°59' W 046°17'4 8.0
2017-Apr-01 13:00S 24°01' W 046°21'611.3
2017-Apr-01 12:30S 24°07' W 046°22'611.6
2017-Apr-01 12:00S 24°13' W 046°23'611.8
2017-Apr-01 11:30S 24°18' W 046°22'612.0
2017-Apr-01 11:00S 24°24' W 046°19'612.4
2017-Apr-01 10:30S 24°28' W 046°14'612.0
2017-Apr-01 10:00S 24°32' W 046°09'  

Dump ship's entire track history